Time;durP1;ratioP1;P1;durP2;ratioP2;P2;SDS_P1;SDS_P2;PMS_P1;PMS_P2;Temp;Humidity;BMP_temperature;BMP_pressure;BME280_temperature;BME280_humidity;BME280_pressure;Samples;Min_cycle;Max_cycle;Signal;HPM_P1;HPM_P2
2022/10/07 00:01:53;;;;;;;;;;;;;;;26.08;45.82;95252.50;4988540;28;8740;-60
2022/10/07 00:04:21;;;;;;;;;;;;;;;26.06;45.89;95254.19;4991949;28;9041;-59
2022/10/07 00:06:47;;;;;;;;;;;;;;;26.08;46.03;95246.97;4999551;28;9471;-60
2022/10/07 00:09:27;;;;;;;;;;;;;;;26.09;46.63;95256.03;5007436;28;8559;-60
2022/10/07 00:12:02;;;;;;;;;;;;;;;26.08;46.24;95255.25;5005424;28;7552;-60
2022/10/07 00:14:36;;;;;;;;;;;;;;;26.07;45.90;95262.00;4987889;28;8012;-60
2022/10/07 00:17:02;;;;;;;;;;;;;;;26.07;45.64;95259.25;5004015;28;7917;-60
2022/10/07 00:19:37;;;;;;;;;;;;;;;26.08;46.20;95255.25;4986151;28;8695;-60
2022/10/07 00:22:04;;;;;;;;;;;;;;;26.07;45.99;95258.47;4987198;28;7155;-60
2022/10/07 00:24:38;;;;;;;;;;;;;;;26.08;46.20;95251.72;4982974;28;9439;-60
2022/10/07 00:27:30;;;;;;;;;;;;;;;26.08;46.58;95258.00;4981595;28;7041;-59
2022/10/07 00:30:25;;;;;;;;;;;;;;;26.07;45.95;95258.47;4934574;29;7096;-60
2022/10/07 00:33:04;;;;;;;;;;;;;;;26.06;45.77;95257.72;4908213;29;8267;-60
2022/10/07 00:35:34;;;;;;;;;;;;;;;26.06;45.99;95252.22;4893633;29;7320;-60
2022/10/07 00:38:03;;;;;;;;;;;;;;;26.05;45.83;95250.72;4890625;29;7267;-60
2022/10/07 00:40:45;;;;;;;;;;;;;;;26.05;46.08;95261.75;4909249;29;7641;-60
2022/10/07 00:43:30;;;;;;;;;;;;;;;26.06;45.75;95252.22;4916716;29;7462;-60
2022/10/07 00:46:14;;;;;;;;;;;;;;;26.06;46.32;95249.44;4904476;29;7296;-60
2022/10/07 00:48:43;;;;;;;;;;;;;;;26.06;46.54;95240.41;4897208;29;7230;-60
2022/10/07 00:51:10;;;;;;;;;;;;;;;26.05;45.69;95245.19;4891947;29;7310;-60
2022/10/07 00:53:51;;;;;;;;;;;;;;;26.04;45.87;95251.19;4912642;29;9037;-60
2022/10/07 00:56:26;;;;;;;;;;;;;;;26.03;45.84;95250.44;4910157;29;9272;-60
2022/10/07 00:59:04;;;;;;;;;;;;;;;26.03;45.61;95239.41;4912645;29;9499;-60
2022/10/07 01:01:32;;;;;;;;;;;;;;;26.03;45.61;95236.66;4880751;29;7338;-60
2022/10/07 01:04:10;;;;;;;;;;;;;;;26.03;45.86;95244.91;4911026;29;9386;-60
2022/10/07 01:06:38;;;;;;;;;;;;;;;26.04;46.17;95240.16;4909065;29;7308;-60
2022/10/07 01:09:19;;;;;;;;;;;;;;;26.03;46.32;95235.91;4965495;28;7562;-60
2022/10/07 01:11:49;;;;;;;;;;;;;;;26.01;45.71;95233.63;4997567;28;7552;-60
2022/10/07 01:14:55;;;;;;;;;;;;;;;26.02;45.92;95237.91;4991382;28;7220;-60
2022/10/07 01:17:25;;;;;;;;;;;;;;;26.02;45.72;95229.63;5005726;28;7072;-60
2022/10/07 01:20:16;;;;;;;;;;;;;;;26.01;46.56;95228.13;4993169;28;7232;-60
2022/10/07 01:23:16;;;;;;;;;;;;;;;26.02;45.79;95226.13;4990367;28;7168;-60
2022/10/07 01:25:49;;;;;;;;;;;;;;;26.00;46.03;95223.09;4984793;28;8280;-60
2022/10/07 01:28:45;;;;;;;;;;;;;;;25.99;45.58;95216.81;4989229;28;7306;-59
2022/10/07 01:31:22;;;;;;;;;;;;;;;26.00;46.40;95215.59;4985732;28;9457;-60
2022/10/07 01:33:53;;;;;;;;;;;;;;;25.99;46.26;95203.03;5006833;28;7244;-60
2022/10/07 01:36:25;;;;;;;;;;;;;;;25.98;45.95;95212.59;5000133;28;7279;-60
2022/10/07 01:39:01;;;;;;;;;;;;;;;25.99;46.11;95208.56;4983755;28;7332;-60
2022/10/07 01:41:31;;;;;;;;;;;;;;;26.00;45.97;95201.81;5004586;28;7001;-60
2022/10/07 01:44:02;;;;;;;;;;;;;;;26.00;46.56;95201.81;4986041;28;8679;-59
2022/10/07 01:46:29;;;;;;;;;;;;;;;25.98;46.39;95201.56;5000470;28;9190;-60
2022/10/07 01:48:58;;;;;;;;;;;;;;;25.99;46.38;95196.81;5002159;28;7032;-60
2022/10/07 01:51:32;;;;;;;;;;;;;;;26.00;45.64;95199.06;4987984;28;7248;-60
2022/10/07 01:54:40;;;;;;;;;;;;;;;26.01;46.52;95194.31;4986279;28;7523;-60
2022/10/07 01:57:10;;;;;;;;;;;;;;;25.99;46.33;95189.25;4983784;28;7309;-60
2022/10/07 01:59:50;;;;;;;;;;;;;;;25.99;45.60;95186.50;5000790;28;7225;-60
2022/10/07 02:02:25;;;;;;;;;;;;;;;25.99;46.38;95185.78;4977910;28;7246;-60
2022/10/07 02:05:26;;;;;;;;;;;;;;;25.99;45.98;95183.75;4986854;28;7388;-60
2022/10/07 02:07:55;;;;;;;;;;;;;;;25.97;45.66;95177.22;4983945;28;7696;-60
2022/10/07 02:10:57;;;;;;;;;;;;;;;25.99;46.00;95181.00;4990313;28;7284;-60
2022/10/07 02:13:40;;;;;;;;;;;;;;;25.97;46.28;95172.47;4998007;28;7401;-60
2022/10/07 02:16:32;;;;;;;;;;;;;;;25.97;46.02;95177.97;5016547;28;7800;-61
2022/10/07 02:19:15;;;;;;;;;;;;;;;25.94;46.04;95173.47;4982024;28;8947;-60
2022/10/07 02:21:48;;;;;;;;;;;;;;;25.96;45.57;95170.97;5007607;28;7537;-61
2022/10/07 02:24:24;;;;;;;;;;;;;;;25.96;45.66;95157.19;4993212;28;7357;-60
2022/10/07 02:26:57;;;;;;;;;;;;;;;25.96;45.57;95159.94;4989260;28;7264;-60
2022/10/07 02:29:29;;;;;;;;;;;;;;;25.97;45.62;95161.44;5011527;28;9440;-60
2022/10/07 02:32:05;;;;;;;;;;;;;;;25.96;45.95;95159.94;5017821;28;7392;-61
2022/10/07 02:34:35;;;;;;;;;;;;;;;25.95;45.67;95158.44;4991489;28;8681;-60
2022/10/07 02:37:30;;;;;;;;;;;;;;;25.93;45.93;95155.41;4990330;28;7308;-60
2022/10/07 02:40:04;;;;;;;;;;;;;;;25.95;45.77;95152.91;4987879;28;7017;-61
2022/10/07 02:42:47;;;;;;;;;;;;;;;25.94;45.60;95140.41;5008945;28;7003;-60
2022/10/07 02:45:39;;;;;;;;;;;;;;;25.94;46.09;95151.41;5005504;28;7531;-60
2022/10/07 02:48:31;;;;;;;;;;;;;;;25.94;45.59;95156.94;4989950;28;7442;-60
2022/10/07 02:51:06;;;;;;;;;;;;;;;25.93;46.52;95149.91;4988825;28;9005;-60
2022/10/07 02:53:36;;;;;;;;;;;;;;;25.94;46.48;95147.91;4994650;28;7250;-60
2022/10/07 02:56:05;;;;;;;;;;;;;;;25.93;46.01;95146.38;4994622;28;7370;-60
2022/10/07 02:58:34;;;;;;;;;;;;;;;25.92;45.90;95151.16;4995083;28;7026;-60
2022/10/07 03:01:07;;;;;;;;;;;;;;;25.90;46.01;95155.66;4995134;28;7248;-61
2022/10/07 03:03:33;;;;;;;;;;;;;;;25.91;46.21;95148.88;4991760;28;7212;-61
2022/10/07 03:05:59;;;;;;;;;;;;;;;25.90;45.86;95145.38;5005822;28;7212;-60
2022/10/07 03:08:28;;;;;;;;;;;;;;;25.88;46.12;95141.63;4967036;28;8597;-60
2022/10/07 03:10:54;;;;;;;;;;;;;;;25.87;46.13;95143.63;5001563;28;6998;-60
2022/10/07 03:13:23;;;;;;;;;;;;;;;25.89;46.12;95141.13;5000561;28;7219;-61
2022/10/07 03:15:50;;;;;;;;;;;;;;;25.88;46.05;95142.34;5006212;28;9355;-61
2022/10/07 03:18:26;;;;;;;;;;;;;;;25.87;46.31;95140.84;5003416;28;7869;-60
2022/10/07 03:21:00;;;;;;;;;;;;;;;25.88;46.23;95134.09;5005102;28;6990;-61
2022/10/07 03:23:28;;;;;;;;;;;;;;;25.88;46.23;95144.38;5005369;28;9594;-60
2022/10/07 03:26:00;;;;;;;;;;;;;;;25.88;46.50;95134.09;5004319;28;9530;-61
2022/10/07 03:28:36;;;;;;;;;;;;;;;25.90;46.31;95134.34;4994631;28;6956;-60
2022/10/07 03:31:11;;;;;;;;;;;;;;;25.89;46.03;95132.84;4984047;28;7223;-60
2022/10/07 03:33:50;;;;;;;;;;;;;;;25.90;45.84;95131.59;5005681;28;7540;-61
2022/10/07 03:36:27;;;;;;;;;;;;;;;25.89;46.56;95135.59;5002765;28;9012;-60
2022/10/07 03:38:54;;;;;;;;;;;;;;;25.89;46.06;95134.84;5007545;28;7318;-60
2022/10/07 03:41:23;;;;;;;;;;;;;;;25.88;45.89;95136.84;5000614;28;9064;-61
2022/10/07 03:43:49;;;;;;;;;;;;;;;25.87;45.81;95127.09;4998504;28;7306;-61
2022/10/07 03:46:16;;;;;;;;;;;;;;;25.88;45.61;95128.56;4997808;28;9089;-60
2022/10/07 03:48:44;;;;;;;;;;;;;;;25.87;46.33;95127.09;5003448;28;7222;-60
2022/10/07 03:51:09;;;;;;;;;;;;;;;25.86;46.52;95131.06;4986302;28;8384;-61
2022/10/07 03:53:45;;;;;;;;;;;;;;;25.86;45.64;95130.34;4995005;28;6968;-60
2022/10/07 03:56:11;;;;;;;;;;;;;;;25.86;46.56;95131.06;4988363;28;8984;-60
2022/10/07 03:58:42;;;;;;;;;;;;;;;25.84;46.57;95122.53;4987311;28;7431;-61
2022/10/07 04:01:13;;;;;;;;;;;;;;;25.85;46.03;95126.81;5010646;28;6990;-61
2022/10/07 04:03:54;;;;;;;;;;;;;;;25.86;46.37;95122.81;5003690;28;9138;-61
2022/10/07 04:06:30;;;;;;;;;;;;;;;25.84;45.66;95119.78;4984094;28;7213;-61
2022/10/07 04:09:06;;;;;;;;;;;;;;;25.83;46.55;95123.81;4997764;28;6961;-60
2022/10/07 04:11:42;;;;;;;;;;;;;;;25.84;46.15;95124.53;5001428;28;7425;-60
2022/10/07 04:14:08;;;;;;;;;;;;;;;25.83;46.13;95129.31;4987893;28;7277;-60
2022/10/07 04:16:39;;;;;;;;;;;;;;;25.84;46.50;95130.06;4985650;28;6947;-61
2022/10/07 04:19:11;;;;;;;;;;;;;;;25.81;46.15;95129.06;4981538;28;7097;-61
2022/10/07 04:21:45;;;;;;;;;;;;;;;25.84;46.20;95121.78;5001265;28;6981;-61
2022/10/07 04:24:20;;;;;;;;;;;;;;;25.82;46.54;95133.31;5002817;28;6989;-60
2022/10/07 04:26:46;;;;;;;;;;;;;;;25.81;46.15;95120.03;5021017;28;7179;-61
2022/10/07 04:29:15;;;;;;;;;;;;;;;25.82;46.11;95118.78;5010096;28;7197;-60
2022/10/07 04:31:41;;;;;;;;;;;;;;;25.80;46.02;95121.28;5000656;28;7226;-60
2022/10/07 04:34:26;;;;;;;;;;;;;;;25.79;46.33;95120.53;5004967;28;9335;-60
2022/10/07 04:36:57;;;;;;;;;;;;;;;25.81;46.34;95117.28;4993824;28;7200;-60
2022/10/07 04:39:29;;;;;;;;;;;;;;;25.83;45.63;95118.31;5004446;28;8788;-60
2022/10/07 04:41:57;;;;;;;;;;;;;;;25.83;45.84;95106.53;5004295;28;8870;-60
2022/10/07 04:44:23;;;;;;;;;;;;;;;25.81;45.99;95109.78;5010786;28;7243;-60
2022/10/07 04:46:49;;;;;;;;;;;;;;;25.81;46.48;95109.03;5002195;28;7542;-61
2022/10/07 04:49:15;;;;;;;;;;;;;;;25.79;45.96;95101.25;5015867;28;7064;-60
2022/10/07 04:51:49;;;;;;;;;;;;;;;25.77;45.74;95103.00;5000699;28;8670;-61
2022/10/07 04:54:18;;;;;;;;;;;;;;;25.76;49.54;95105.00;4988379;28;9130;-61
2022/10/07 04:56:50;;;;;;;;;;;;;;;25.75;47.18;95106.22;4996544;28;7299;-61
2022/10/07 04:59:25;;;;;;;;;;;;;;;25.76;48.42;95105.00;5005280;28;9423;-61
2022/10/07 05:01:52;;;;;;;;;;;;;;;25.73;47.22;95105.22;4985586;28;9277;-60
2022/10/07 05:04:30;;;;;;;;;;;;;;;25.70;47.62;95100.69;4988259;28;9069;-61
2022/10/07 05:06:58;;;;;;;;;;;;;;;25.69;47.22;95102.69;4982898;28;8541;-60
2022/10/07 05:09:27;;;;;;;;;;;;;;;25.70;46.81;95104.22;4986426;28;7865;-60
2022/10/07 05:11:58;;;;;;;;;;;;;;;25.69;47.57;95105.44;4988688;28;7420;-60
2022/10/07 05:14:55;;;;;;;;;;;;;;;25.69;47.69;95102.69;4991690;28;7501;-60
2022/10/07 05:17:39;;;;;;;;;;;;;;;25.71;48.39;95108.47;5000591;28;7282;-60
2022/10/07 05:20:11;;;;;;;;;;;;;;;25.72;47.67;95104.47;4997562;28;7148;-61
2022/10/07 05:22:38;;;;;;;;;;;;;;;25.72;47.30;95104.47;4995491;28;6994;-61
2022/10/07 05:25:07;;;;;;;;;;;;;;;25.70;47.75;95108.97;5012180;28;7660;-60
2022/10/07 05:27:39;;;;;;;;;;;;;;;25.69;47.14;95102.69;5012747;28;6961;-60
2022/10/07 05:30:10;;;;;;;;;;;;;;;25.70;47.83;95115.25;4995699;28;7069;-60
2022/10/07 05:32:38;;;;;;;;;;;;;;;25.71;47.59;95110.47;4985779;28;7453;-60
2022/10/07 05:35:07;;;;;;;;;;;;;;;25.72;47.31;95109.97;4979693;28;9170;-61
2022/10/07 05:37:45;;;;;;;;;;;;;;;25.75;47.80;95106.22;4994142;28;7325;-61
2022/10/07 05:40:20;;;;;;;;;;;;;;;25.74;47.04;95101.97;5010293;28;7492;-60
2022/10/07 05:42:49;;;;;;;;;;;;;;;25.73;47.12;95105.97;4990558;28;7012;-60
2022/10/07 05:45:20;;;;;;;;;;;;;;;25.68;47.15;95095.69;5016523;28;9226;-61
2022/10/07 05:47:48;;;;;;;;;;;;;;;25.66;47.13;95108.44;5003367;28;9354;-60
2022/10/07 05:50:15;;;;;;;;;;;;;;;25.62;47.54;95108.66;5004260;28;6986;-60
2022/10/07 05:52:44;;;;;;;;;;;;;;;25.62;47.67;95103.16;5017540;28;9370;-61
2022/10/07 05:55:13;;;;;;;;;;;;;;;25.65;47.53;95102.19;4994036;28;7221;-61
2022/10/07 05:57:45;;;;;;;;;;;;;;;25.62;47.43;95094.88;5022047;28;7595;-61
2022/10/07 06:00:12;;;;;;;;;;;;;;;25.65;47.58;95096.66;4993454;28;8730;-61
2022/10/07 06:02:43;;;;;;;;;;;;;;;25.64;47.66;95106.19;4996646;28;7276;-60
2022/10/07 06:05:09;;;;;;;;;;;;;;;25.66;47.38;95103.69;4993624;28;7534;-60
2022/10/07 06:07:43;;;;;;;;;;;;;;;25.65;47.65;95102.19;5019022;28;7334;-61
2022/10/07 06:13:08;;;;;;;;;;;;;;;25.67;47.63;95107.94;5011763;28;8732;-61
2022/10/07 06:15:35;;;;;;;;;;;;;;;25.67;47.61;95105.19;4993297;28;9100;-61
2022/10/07 06:18:03;;;;;;;;;;;;;;;25.69;47.26;95107.44;5007651;28;8971;-60
2022/10/07 06:20:32;;;;;;;;;;;;;;;25.69;47.40;95102.69;5010247;28;8293;-61
2022/10/07 06:23:00;;;;;;;;;;;;;;;25.71;47.04;95111.22;4986864;28;9521;-61
2022/10/07 06:25:28;;;;;;;;;;;;;;;25.69;47.08;95102.69;4991461;28;9117;-60
2022/10/07 06:27:58;;;;;;;;;;;;;;;25.71;46.92;95099.47;5002084;28;7194;-61
2022/10/07 06:30:24;;;;;;;;;;;;;;;25.70;47.78;95093.19;4996693;28;6954;-61
2022/10/07 06:32:53;;;;;;;;;;;;;;;25.68;47.46;95090.19;4969976;28;9103;-61
2022/10/07 06:35:21;;;;;;;;;;;;;;;25.68;46.88;95106.72;4996533;28;9129;-61
2022/10/07 06:37:52;;;;;;;;;;;;;;;25.66;47.72;95108.44;5012484;28;7242;-61
2022/10/07 06:40:34;;;;;;;;;;;;;;;25.64;47.61;95103.44;4998257;28;7171;-61
2022/10/07 06:43:01;;;;;;;;;;;;;;;25.64;47.73;95097.94;4982344;28;7063;-60
2022/10/07 06:45:34;;;;;;;;;;;;;;;25.64;47.15;95108.19;5001275;28;7118;-61
2022/10/07 06:48:00;;;;;;;;;;;;;;;25.63;47.45;95109.44;4995896;28;7242;-61
2022/10/07 06:50:26;;;;;;;;;;;;;;;25.63;46.75;95118.44;4995247;28;7359;-60
2022/10/07 06:52:55;;;;;;;;;;;;;;;25.64;47.01;95106.19;4980758;28;8716;-60
2022/10/07 06:55:23;;;;;;;;;;;;;;;25.63;47.36;95110.19;4994941;28;7533;-61
2022/10/07 06:57:59;;;;;;;;;;;;;;;25.61;47.66;95109.94;4987309;28;7459;-60
2022/10/07 07:00:25;;;;;;;;;;;;;;;25.61;47.02;95107.19;4995430;28;8989;-61
2022/10/07 07:03:00;;;;;;;;;;;;;;;25.63;46.79;95110.19;4986254;28;6883;-61
2022/10/07 07:05:37;;;;;;;;;;;;;;;25.62;46.64;95108.66;4989566;28;7385;-61
2022/10/07 07:08:04;;;;;;;;;;;;;;;25.64;47.41;95110.94;4993324;28;7282;-60
2022/10/07 07:10:36;;;;;;;;;;;;;;;25.64;47.05;95111.72;4996732;28;6994;-61
2022/10/07 07:13:01;;;;;;;;;;;;;;;25.64;47.42;95110.94;4994468;28;7347;-60
2022/10/07 07:15:27;;;;;;;;;;;;;;;25.64;46.86;95119.22;5003136;28;9357;-60
2022/10/07 07:17:53;;;;;;;;;;;;;;;25.64;47.32;95116.47;4998153;28;7399;-60
2022/10/07 07:20:19;;;;;;;;;;;;;;;25.64;46.55;95119.97;4994429;28;7263;-61
2022/10/07 07:22:45;;;;;;;;;;;;;;;25.64;46.70;95125.47;4992992;28;7438;-61
2022/10/07 07:25:26;;;;;;;;;;;;;;;25.64;46.92;95127.47;4977839;28;7239;-61
2022/10/07 07:28:03;;;;;;;;;;;;;;;25.64;46.96;95122.72;4982749;28;9266;-61
2022/10/07 07:30:30;;;;;;;;;;;;;;;25.65;46.93;95121.47;4996274;28;7083;-61
2022/10/07 07:33:00;;;;;;;;;;;;;;;25.65;47.52;95117.94;5012953;28;7088;-60
2022/10/07 07:35:31;;;;;;;;;;;;;;;25.64;46.88;95122.72;4993502;28;7284;-61
2022/10/07 07:37:59;;;;;;;;;;;;;;;25.64;46.39;95119.97;4985568;28;8510;-60
2022/10/07 07:40:30;;;;;;;;;;;;;;;25.64;47.16;95117.22;4994594;28;7236;-61
2022/10/07 07:42:56;;;;;;;;;;;;;;;25.65;46.88;95113.19;4983796;28;6974;-61
2022/10/07 07:45:25;;;;;;;;;;;;;;;25.65;46.87;95117.94;4990898;28;7173;-61
2022/10/07 07:47:51;;;;;;;;;;;;;;;25.64;47.29;95110.94;4994506;28;7001;-61
2022/10/07 07:50:25;;;;;;;;;;;;;;;25.63;46.41;95110.19;4976851;28;8477;-61
2022/10/07 07:52:55;;;;;;;;;;;;;;;25.63;46.70;95109.44;5011217;28;7806;-61
2022/10/07 07:55:30;;;;;;;;;;;;;;;25.63;46.40;95115.69;5000200;28;7166;-60
2022/10/07 07:58:10;;;;;;;;;;;;;;;25.63;46.61;95112.94;4988071;28;8379;-61
2022/10/07 08:00:58;;;;;;;;;;;;;;;25.64;46.81;95111.72;4991499;28;8267;-60
2022/10/07 08:03:29;;;;;;;;;;;;;;;25.64;47.15;95111.72;5008038;28;9566;-61
2022/10/07 08:06:03;;;;;;;;;;;;;;;25.64;46.36;95111.72;4986653;28;9058;-60
2022/10/07 08:08:32;;;;;;;;;;;;;;;25.63;47.02;95110.19;4994323;28;9685;-61
2022/10/07 08:11:11;;;;;;;;;;;;;;;25.62;47.05;95107.94;4984948;28;7302;-61
2022/10/07 08:13:40;;;;;;;;;;;;;;;25.62;46.21;95110.69;4979789;28;7391;-61
2022/10/07 08:16:15;;;;;;;;;;;;;;;25.62;46.34;95114.19;4995884;28;7491;-61
2022/10/07 08:18:54;;;;;;;;;;;;;;;25.63;46.67;95115.69;4986082;28;7345;-61
2022/10/07 08:21:25;;;;;;;;;;;;;;;25.63;46.38;95106.66;4995646;28;9043;-60
2022/10/07 08:23:58;;;;;;;;;;;;;;;25.63;46.15;95115.69;5007292;28;7416;-60
2022/10/07 08:26:32;;;;;;;;;;;;;;;25.63;46.55;95112.94;5005485;28;7102;-61
2022/10/07 08:29:02;;;;;;;;;;;;;;;25.62;46.59;95107.94;4995484;28;7338;-61
2022/10/07 08:31:34;;;;;;;;;;;;;;;25.63;46.44;95110.19;4995342;28;8378;-61
2022/10/07 08:34:03;;;;;;;;;;;;;;;25.62;46.34;95105.91;5003967;28;9491;-61
2022/10/07 08:36:39;;;;;;;;;;;;;;;25.63;46.44;95109.44;5000192;28;7443;-61
2022/10/07 08:39:08;;;;;;;;;;;;;;;25.61;46.93;95107.19;4984636;28;7070;-61
2022/10/07 08:41:57;;;;;;;;;;;;;;;25.61;46.12;95112.69;4976725;28;7324;-61
2022/10/07 08:44:37;;;;;;;;;;;;;;;25.61;46.25;95104.41;4993296;28;7354;-61
2022/10/07 08:47:13;;;;;;;;;;;;;;;25.60;46.18;95105.66;5018102;28;9030;-61
2022/10/07 08:49:56;;;;;;;;;;;;;;;25.58;45.96;95091.63;4985692;28;7051;-61
2022/10/07 08:52:34;;;;;;;;;;;;;;;25.60;46.56;95105.66;4993875;28;8839;-60
2022/10/07 08:55:32;;;;;;;;;;;;;;;25.59;46.65;95108.91;4985849;28;7313;-61
2022/10/07 08:58:42;;;;;;;;;;;;;;;25.61;46.62;95104.41;4991155;28;6976;-61
2022/10/07 09:01:28;;;;;;;;;;;;;;;25.60;45.94;95097.38;5001760;28;7211;-61
2022/10/07 09:04:11;;;;;;;;;;;;;;;25.61;46.67;95095.41;5001695;28;7334;-60
2022/10/07 09:06:54;;;;;;;;;;;;;;;25.60;46.59;95096.66;4976265;28;8135;-60
2022/10/07 09:09:31;;;;;;;;;;;;;;;25.58;46.57;95094.38;4995186;28;9058;-60
2022/10/07 09:12:09;;;;;;;;;;;;;;;25.59;46.24;95087.63;4993211;28;7362;-60
2022/10/07 09:14:43;;;;;;;;;;;;;;;25.59;46.65;95078.59;5001688;28;7190;-60
2022/10/07 09:17:20;;;;;;;;;;;;;;;25.59;46.24;95081.38;5008956;28;7180;-60
2022/10/07 09:19:49;;;;;;;;;;;;;;;25.59;46.59;95075.84;4992177;28;8727;-60
2022/10/07 09:22:23;;;;;;;;;;;;;;;25.60;46.41;95072.59;4994257;28;8994;-61
2022/10/07 09:25:12;;;;;;;;;;;;;;;25.61;46.90;95074.13;4980162;28;7277;-60
2022/10/07 09:27:47;;;;;;;;;;;;;;;25.63;46.39;95068.09;4996025;28;7222;-60
2022/10/07 09:30:21;;;;;;;;;;;;;;;25.62;46.04;95066.63;4997534;28;9075;-61
2022/10/07 09:32:53;;;;;;;;;;;;;;;25.61;46.99;95060.34;5008140;28;8410;-61
2022/10/07 09:35:23;;;;;;;;;;;;;;;25.63;46.53;95059.84;4996764;28;7220;-61
2022/10/07 09:38:08;;;;;;;;;;;;;;;25.63;46.57;95063.34;5015457;28;9158;-60
2022/10/07 09:43:33;;;;;;;;;;;;;;;25.63;46.46;95057.84;5008574;28;7097;-61
2022/10/07 09:46:00;;;;;;;;;;;;;;;25.64;46.36;95051.09;4989721;28;7246;-60
2022/10/07 09:48:33;;;;;;;;;;;;;;;25.64;46.63;95045.59;5017919;28;7427;-60
2022/10/07 09:51:15;;;;;;;;;;;;;;;25.66;46.43;95043.09;5020869;28;9119;-61
2022/10/07 09:54:27;;;;;;;;;;;;;;;25.64;46.67;95051.09;4988313;28;9116;-60
2022/10/07 09:56:59;;;;;;;;;;;;;;;25.63;46.78;95049.56;4997097;28;7100;-60
2022/10/07 09:59:32;;;;;;;;;;;;;;;25.64;46.75;95058.59;4985451;28;9419;-60
2022/10/07 10:02:30;;;;;;;;;;;;;;;25.64;46.64;95053.84;4995824;28;7417;-60
2022/10/07 10:04:56;;;;;;;;;;;;;;;25.65;46.62;95043.56;4956298;28;9168;-61
2022/10/07 10:07:59;;;;;;;;;;;;;;;25.66;45.83;95053.34;4987896;28;8375;-60
2022/10/07 10:10:32;;;;;;;;;;;;;;;25.67;46.12;95044.59;4961981;28;7230;-60
2022/10/07 10:13:01;;;;;;;;;;;;;;;25.67;46.21;95047.34;4973452;28;7330;-61
2022/10/07 10:16:25;;;;;;;;;;;;;;;25.68;45.77;95045.34;4957673;28;9184;-61
2022/10/07 10:19:03;;;;;;;;;;;;;;;25.66;46.57;95034.06;4916540;29;7621;-61
2022/10/07 10:21:34;;;;;;;;;;;;;;;25.65;46.72;95038.81;4915872;29;10442;-60
2022/10/07 10:24:13;;;;;;;;;;;;;;;25.66;46.70;95032.06;4900030;29;7802;-60
2022/10/07 10:26:55;;;;;;;;;;;;;;;25.66;46.14;95028.56;4897965;29;8753;-60
2022/10/07 10:29:47;;;;;;;;;;;;;;;25.67;45.90;95030.81;4905647;29;8810;-61
2022/10/07 10:32:47;;;;;;;;;;;;;;;25.68;46.64;95031.56;4912242;29;6992;-60
2022/10/07 10:35:19;;;;;;;;;;;;;;;25.67;46.22;95022.53;4914013;29;9504;-60
2022/10/07 10:38:00;;;;;;;;;;;;;;;25.69;45.92;95017.28;4912968;29;7399;-61
2022/10/07 10:40:43;;;;;;;;;;;;;;;25.69;45.87;95019.28;4906772;29;7014;-61
2022/10/07 10:43:22;;;;;;;;;;;;;;;25.69;46.27;95011.00;4888347;29;7267;-60
2022/10/07 10:46:21;;;;;;;;;;;;;;;25.69;46.61;95014.53;4935629;28;9224;-61
2022/10/07 10:49:08;;;;;;;;;;;;;;;25.70;46.84;95010.53;4941393;28;6997;-61
2022/10/07 10:51:53;;;;;;;;;;;;;;;25.69;45.77;95000.75;5000256;28;7227;-60
2022/10/07 10:54:23;;;;;;;;;;;;;;;25.67;46.62;95003.25;5024395;28;9486;-60
2022/10/07 10:56:52;;;;;;;;;;;;;;;25.68;46.27;95001.25;4990305;28;7011;-60
2022/10/07 10:59:32;;;;;;;;;;;;;;;25.69;46.53;94992.50;4990696;28;7692;-60
2022/10/07 11:02:17;;;;;;;;;;;;;;;25.70;46.55;94994.00;4996736;28;7391;-61
2022/10/07 11:04:58;;;;;;;;;;;;;;;25.69;46.75;94989.72;5005659;28;9103;-60
2022/10/07 11:07:46;;;;;;;;;;;;;;;25.69;46.26;94991.72;5000062;28;7361;-61
2022/10/07 11:10:26;;;;;;;;;;;;;;;25.71;46.34;94990.00;4999270;28;7206;-61
2022/10/07 11:13:22;;;;;;;;;;;;;;;25.70;46.86;94988.50;4986942;28;7344;-61
2022/10/07 11:16:10;;;;;;;;;;;;;;;25.70;46.97;94983.00;5014513;28;7350;-61
2022/10/07 11:18:47;;;;;;;;;;;;;;;25.70;46.74;94977.47;5003690;28;7253;-60
2022/10/07 11:21:28;;;;;;;;;;;;;;;25.69;46.87;94975.97;5012163;28;8679;-61
2022/10/07 11:24:02;;;;;;;;;;;;;;;25.70;46.90;94976.72;4994723;28;7122;-61
2022/10/07 11:26:42;;;;;;;;;;;;;;;25.71;46.45;94967.22;4977785;28;8757;-61
2022/10/07 11:29:30;;;;;;;;;;;;;;;25.69;46.52;94970.44;4992587;28;6972;-61
2022/10/07 11:32:01;;;;;;;;;;;;;;;25.69;46.10;94956.66;4975663;28;9384;-61
2022/10/07 11:35:12;;;;;;;;;;;;;;;25.73;46.84;94948.91;5002916;28;6973;-61
2022/10/07 11:38:03;;;;;;;;;;;;;;;25.75;46.14;94945.69;4962744;28;7795;-61
2022/10/07 11:40:32;;;;;;;;;;;;;;;25.75;46.07;94935.38;4943630;28;7050;-60
2022/10/07 11:43:14;;;;;;;;;;;;;;;25.75;46.29;94943.66;4943311;28;7277;-60
2022/10/07 11:45:51;;;;;;;;;;;;;;;25.75;46.78;94937.41;4931321;29;7557;-60
2022/10/07 11:48:37;;;;;;;;;;;;;;;25.76;46.21;94930.63;4924044;28;9272;-60
2022/10/07 11:51:07;;;;;;;;;;;;;;;25.77;46.08;94927.41;4948638;28;7326;-61
2022/10/07 11:53:39;;;;;;;;;;;;;;;25.77;46.11;94921.88;4952538;28;9048;-60
2022/10/07 11:56:18;;;;;;;;;;;;;;;25.76;46.59;94919.63;4942835;28;8911;-60
2022/10/07 11:58:45;;;;;;;;;;;;;;;25.77;46.12;94913.63;4949674;28;7280;-61
2022/10/07 12:01:38;;;;;;;;;;;;;;;25.80;46.25;94909.84;4951600;28;8262;-61
2022/10/07 12:04:35;;;;;;;;;;;;;;;25.80;46.97;94900.81;4958605;28;7891;-61
2022/10/07 12:07:36;;;;;;;;;;;;;;;25.80;46.03;94900.81;4942651;28;9035;-61
2022/10/07 12:10:37;;;;;;;;;;;;;;;25.80;46.09;94895.31;4936000;28;7847;-60
2022/10/07 12:13:11;;;;;;;;;;;;;;;25.80;46.99;94893.31;4994685;28;8189;-61
2022/10/07 12:16:22;;;;;;;;;;;;;;;25.80;46.79;94890.56;5013836;28;7445;-61
2022/10/07 12:19:09;;;;;;;;;;;;;;;25.81;46.22;94883.06;4977979;28;9430;-60
2022/10/07 12:22:01;;;;;;;;;;;;;;;25.82;46.31;94881.78;4944479;28;7292;-60
2022/10/07 12:24:37;;;;;;;;;;;;;;;25.82;46.39;94868.00;4946550;28;9395;-60
2022/10/07 12:27:25;;;;;;;;;;;;;;;25.82;46.34;94868.78;4965017;28;7423;-60
2022/10/07 12:29:57;;;;;;;;;;;;;;;25.83;47.06;94875.78;4946921;28;7220;-60
2022/10/07 12:32:54;;;;;;;;;;;;;;;25.84;46.32;94855.25;4977882;28;9005;-60
2022/10/07 12:36:07;;;;;;;;;;;;;;;25.88;47.19;94857.75;4961441;28;7172;-61
2022/10/07 12:38:59;;;;;;;;;;;;;;;25.90;46.32;94858.00;4932279;29;7073;-60
2022/10/07 12:41:42;;;;;;;;;;;;;;;25.90;46.74;94853.22;4928565;29;7330;-60
2022/10/07 12:44:20;;;;;;;;;;;;;;;25.89;47.30;94854.50;4929660;29;7450;-61
2022/10/07 12:47:00;;;;;;;;;;;;;;;25.92;46.88;94850.00;4932561;29;8999;-60
2022/10/07 12:49:37;;;;;;;;;;;;;;;25.93;46.87;94843.97;4916439;29;9098;-60
2022/10/07 12:52:10;;;;;;;;;;;;;;;25.93;46.80;94841.22;4932510;29;7849;-61
2022/10/07 12:54:46;;;;;;;;;;;;;;;25.96;47.03;94837.47;4935743;29;8500;-60
2022/10/07 12:57:26;;;;;;;;;;;;;;;25.96;46.99;94840.22;4935521;29;9102;-61
2022/10/07 12:59:52;;;;;;;;;;;;;;;25.96;47.33;94845.72;4951138;29;7088;-61
2022/10/07 13:03:02;;;;;;;;;;;;;;;25.98;46.67;94837.72;4935309;29;7943;-60
2022/10/07 13:05:50;;;;;;;;;;;;;;;25.98;46.88;94832.19;4946603;29;7311;-61
2022/10/07 13:08:34;;;;;;;;;;;;;;;26.00;47.65;94832.44;4918479;29;7242;-60
2022/10/07 13:11:38;;;;;;;;;;;;;;;26.03;46.66;94833.44;4932196;29;7834;-61
2022/10/07 13:14:18;;;;;;;;;;;;;;;26.00;47.25;94837.94;4951587;28;7877;-60
2022/10/07 13:17:28;;;;;;;;;;;;;;;26.01;46.73;94822.91;4987337;28;7105;-60
2022/10/07 13:20:31;;;;;;;;;;;;;;;26.04;47.02;94827.41;5001402;28;7373;-61
2022/10/07 13:23:05;;;;;;;;;;;;;;;26.08;46.95;94830.69;4983156;28;8628;-60
2022/10/07 13:25:41;;;;;;;;;;;;;;;26.09;47.29;94829.47;5001778;28;7177;-60
2022/10/07 13:28:20;;;;;;;;;;;;;;;26.12;47.25;94809.13;4975806;28;7244;-61
2022/10/07 13:31:15;;;;;;;;;;;;;;;26.13;46.50;94807.91;4977762;28;7546;-60
2022/10/07 13:33:43;;;;;;;;;;;;;;;26.18;46.64;94820.16;5003509;28;7936;-61
2022/10/07 13:36:20;;;;;;;;;;;;;;;26.19;47.24;94818.16;4975879;28;7433;-61
2022/10/07 13:38:52;;;;;;;;;;;;;;;26.24;46.65;94822.91;5000225;28;7641;-60
2022/10/07 13:41:31;;;;;;;;;;;;;;;26.25;46.68;94816.13;5001369;28;6985;-60
2022/10/07 13:44:04;;;;;;;;;;;;;;;26.30;46.28;94802.31;4997424;28;7028;-60
2022/10/07 13:46:34;;;;;;;;;;;;;;;26.32;46.79;94802.56;5002475;28;7093;-61
2022/10/07 13:49:04;;;;;;;;;;;;;;;26.33;46.67;94797.81;4993240;28;10621;-60
2022/10/07 13:51:35;;;;;;;;;;;;;;;26.35;46.46;94803.56;4994040;28;7314;-61
2022/10/07 13:54:04;;;;;;;;;;;;;;;26.37;46.89;94801.06;5025624;28;7319;-60